CST,Max TemperatureF,Mean TemperatureF,Min TemperatureF,Max Dew PointF,MeanDew PointF,Min DewpointF,Max Humidity, Mean Humidity, Min Humidity, Max Sea Level PressureIn, Mean Sea Level PressureIn, Min Sea Level PressureIn, Max VisibilityMiles, Mean VisibilityMiles, Min VisibilityMiles, Max Wind SpeedMPH, Mean Wind SpeedMPH, Max Gust SpeedMPH,PrecipitationIn, CloudCover, Events, WindDirDegrees
2012-12-1,51,40,28,37,32,27,93,77,50,29.89,29.76,29.69,10,7,3,20,11,29,0.00,0,,241
2012-12-2,57,39,21,39,31,19,100,73,48,29.93,29.80,29.58,10,6,0,18,7,28,0.00,2,Fog-Snow,145
2012-12-3,53,43,33,43,35,25,93,66,38,29.97,29.67,29.45,10,9,4,26,14,34,0.00,0,Rain,240
2012-12-4,32,24,15,25,15,9,86,69,47,30.37,30.22,29.98,10,10,10,18,9,21,0.00,0,,328
2012-12-5,44,30,17,27,19,10,79,58,39,30.36,30.00,29.69,10,10,10,20,11,26,0.00,0,,135
2012-12-6,42,30,19,32,25,16,93,66,49,30.02,29.88,29.69,10,10,10,21,9,26,0.00,1,Rain,308
2012-12-7,30,26,23,28,25,19,100,89,80,30.06,30.02,29.99,10,5,1,7,2,,0.00,5,Snow,93
2012-12-8,30,27,24,28,26,25,100,93,86,30.02,29.96,29.89,10,4,0,15,6,20,0.00,8,Snow,127
2012-12-9,32,16,0,30,17,-6,100,90,78,30.12,29.96,29.84,10,2,0,37,20,45,0.00,8,Snow,16
2012-12-10,6,-4,-13,3,-7,-18,92,76,61,30.12,29.94,29.78,10,9,1,23,9,,0.00,2,Snow,175
2012-12-11,19,7,-5,14,5,-9,93,85,73,29.93,29.86,29.78,10,9,2,9,4,,0.00,4,Snow,271
2012-12-12,33,19,5,27,17,1,100,82,60,29.91,29.80,29.74,10,10,7,14,7,17,0.06,1,,134
2012-12-13,23,14,6,21,12,1,93,87,74,30.12,30.02,29.87,10,9,1,15,8,,0.00,1,Snow,332
2012-12-14,35,20,5,30,17,1,93,85,74,30.11,29.90,29.67,10,6,0,14,5,,0.00,2,Fog-Snow,116
2012-12-15,37,29,19,34,30,16,100,90,80,29.69,29.60,29.53,10,6,1,23,10,28,0.34,6,Rain-Snow,16
2012-12-16,24,20,15,21,18,12,93,89,79,29.83,29.78,29.69,10,9,4,21,15,26,0.00,7,,340
2012-12-17,24,22,21,21,20,19,100,93,86,29.82,29.72,29.63,7,4,0,8,3,,0.00,8,Fog-Snow,96
2012-12-18,30,26,21,28,25,19,100,93,86,29.79,29.66,29.59,10,4,1,10,7,,0.00,8,Snow,146
2012-12-19,26,19,12,19,15,9,100,84,69,30.05,29.93,29.79,10,10,10,13,6,,0.03,1,,265
2012-12-20,21,12,3,19,10,1,93,84,73,30.19,30.08,30.02,10,8,2,28,16,32,0.00,7,Snow,328
2012-12-21,8,2,-4,5,0,-8,92,83,78,30.31,30.22,30.09,10,8,1,10,6,,0.00,2,Snow,110
2012-12-22,17,11,5,10,6,1,86,81,73,30.13,30.05,29.99,10,10,7,20,9,26,0.00,2,,350
2012-12-23,15,10,5,10,6,1,92,82,73,30.14,30.10,30.04,10,10,5,10,7,,0.00,3,Snow,6
2012-12-24,14,4,-5,10,-3,-9,92,79,71,30.37,30.20,30.04,10,8,3,21,13,23,0.00,6,Snow,334
2012-12-25,1,-4,-9,-4,-9,-15,85,79,66,30.53,30.46,30.37,10,10,10,9,6,,0.00,0,,310
2012-12-26,8,3,-2,1,-1,-6,92,81,72,30.41,30.31,30.23,10,8,3,5,0,,0.00,7,Snow,76
2012-12-27,17,10,3,16,9,0,93,83,73,30.23,30.17,30.12,10,6,1,9,4,,0.00,8,Snow,103
2012-12-28,17,12,6,14,10,3,93,86,73,30.12,30.08,30.04,10,5,0,8,4,,0.01,8,Snow,358
2012-12-29,14,4,-7,12,-1,-13,93,85,77,30.14,30.09,30.05,10,8,0,6,1,,0.00,2,Fog-Snow,258
2012-12-30,21,8,-5,18,3,-9,93,83,73,30.13,30.00,29.85,10,10,5,22,4,26,0.00,1,,95
2012-12-31,19,4,-11,14,-1,-18,86,77,67,30.27,30.22,30.08,10,10,10,15,9,,0.00,3,Snow,328